地図

経路データ

SID SEASON NUMBER BASIN SUBBASIN NAME ISO_TIME NATURE LAT LON WMO_WIND WMO_PRES WMO_AGENCY TRACK_TYPE DIST2LAND LANDFALL IFLAG USA_AGENCY USA_ATCF_ID USA_LAT USA_LON USA_RECORD USA_STATUS USA_WIND USA_PRES USA_SSHS USA_R34_NE USA_R34_SE USA_R34_SW USA_R34_NW USA_R50_NE USA_R50_SE USA_R50_SW USA_R50_NW USA_R64_NE USA_R64_SE USA_R64_SW USA_R64_NW USA_POCI USA_ROCI USA_RMW USA_EYE TOKYO_LAT TOKYO_LON TOKYO_GRADE TOKYO_WIND TOKYO_PRES TOKYO_R50_DIR TOKYO_R50_LONG TOKYO_R50_SHORT TOKYO_R30_DIR TOKYO_R30_LONG TOKYO_R30_SHORT TOKYO_LAND CMA_LAT CMA_LON CMA_CAT CMA_WIND CMA_PRES HKO_LAT HKO_LON HKO_CAT HKO_WIND HKO_PRES NEWDELHI_LAT NEWDELHI_LON NEWDELHI_GRADE NEWDELHI_WIND NEWDELHI_PRES NEWDELHI_CI NEWDELHI_DP NEWDELHI_POCI REUNION_LAT REUNION_LON REUNION_TYPE REUNION_WIND REUNION_PRES REUNION_TNUM REUNION_CI REUNION_RMW REUNION_R34_NE REUNION_R34_SE REUNION_R34_SW REUNION_R34_NW REUNION_R50_NE REUNION_R50_SE REUNION_R50_SW REUNION_R50_NW REUNION_R64_NE REUNION_R64_SE REUNION_R64_SW REUNION_R64_NW BOM_LAT BOM_LON BOM_TYPE BOM_WIND BOM_PRES BOM_TNUM BOM_CI BOM_RMW BOM_R34_NE BOM_R34_SE BOM_R34_SW BOM_R34_NW BOM_R50_NE BOM_R50_SE BOM_R50_SW BOM_R50_NW BOM_R64_NE BOM_R64_SE BOM_R64_SW BOM_R64_NW BOM_ROCI BOM_POCI BOM_EYE BOM_POS_METHOD BOM_PRES_METHOD NADI_LAT NADI_LON NADI_CAT NADI_WIND NADI_PRES WELLINGTON_LAT WELLINGTON_LON WELLINGTON_WIND WELLINGTON_PRES DS824_LAT DS824_LON DS824_STAGE DS824_WIND DS824_PRES TD9636_LAT TD9636_LON TD9636_STAGE TD9636_WIND TD9636_PRES TD9635_LAT TD9635_LON TD9635_WIND TD9635_PRES TD9635_ROCI NEUMANN_LAT NEUMANN_LON NEUMANN_CLASS NEUMANN_WIND NEUMANN_PRES MLC_LAT MLC_LON MLC_CLASS MLC_WIND MLC_PRES USA_GUST BOM_GUST BOM_GUST_PER REUNION_GUST REUNION_GUST_PER USA_SEAHGT USA_SEARAD_NE USA_SEARAD_SE USA_SEARAD_SW USA_SEARAD_NW STORM_SPEED STORM_DIR
1944266N17319 1944 60 NA NA NOT_NAMED 1944-09-21 12:00:00 TS 17.1000 -41.5000 35 hurdat_atl main 1788 1731 O_____________ hurdat_atl AL091944 17.1000 -41.5000 TS 35 0 19 273
1944266N17319 1944 60 NA NA NOT_NAMED 1944-09-21 15:00:00 TS 17.1434 -42.4900 main 1725 1676 P_____________ AL091944 17.1434 -42.4900 TS 35 0 19 273
1944266N17319 1944 60 NA NA NOT_NAMED 1944-09-21 18:00:00 TS 17.2000 -43.5000 35 hurdat_atl main 1669 1616 O_____________ hurdat_atl AL091944 17.2000 -43.5000 TS 35 0 20 274
1944266N17319 1944 60 NA NA NOT_NAMED 1944-09-21 21:00:00 TS 17.2846 -44.5426 main 1616 1569 P_____________ AL091944 17.2846 -44.5426 TS 35 0 20 276
1944266N17319 1944 60 NA NA NOT_NAMED 1944-09-22 00:00:00 TS 17.4000 -45.6000 35 hurdat_atl main 1564 1523 O_____________ hurdat_atl AL091944 17.4000 -45.6000 TS 35 0 20 277
1944266N17319 1944 60 NA NA NOT_NAMED 1944-09-22 03:00:00 TS 17.5271 -46.6578 main 1519 1497 P_____________ AL091944 17.5271 -46.6578 TS 35 0 20 279
1944266N17319 1944 60 NA NA NOT_NAMED 1944-09-22 06:00:00 TS 17.7000 -47.7000 35 hurdat_atl main 1495 1470 O_____________ hurdat_atl AL091944 17.7000 -47.7000 TS 35 0 20 281
1944266N17319 1944 60 NA NA NOT_NAMED 1944-09-22 09:00:00 TS 17.9122 -48.7303 main 1470 1458 P_____________ AL091944 17.9122 -48.7303 TS 37 0 20 285
1944266N17319 1944 60 NA NA NOT_NAMED 1944-09-22 12:00:00 TS 18.2000 -49.7000 40 hurdat_atl main 1461 1425 O_____________ hurdat_atl AL091944 18.2000 -49.7000 TS 40 0 19 291
1944266N17319 1944 60 NA NA NOT_NAMED 1944-09-22 15:00:00 TS 18.5772 -50.6024 main 1425 1387 P_____________ AL091944 18.5772 -50.6024 TS 40 0 18 296
1944266N17319 1944 60 NA NA NOT_NAMED 1944-09-22 18:00:00 TS 19.0000 -51.4000 40 hurdat_atl main 1387 1363 O_____________ hurdat_atl AL091944 19.0000 -51.4000 TS 40 0 16 299
1944266N17319 1944 60 NA NA NOT_NAMED 1944-09-22 21:00:00 TS 19.3469 -52.0738 main 1356 1349 P_____________ AL091944 19.3469 -52.0738 TS 42 0 15 303
1944266N17319 1944 60 NA NA NOT_NAMED 1944-09-23 00:00:00 TS 19.8000 -52.7000 45 hurdat_atl main 1352 1298 O_____________ hurdat_atl AL091944 19.8000 -52.7000 TS 45 0 17 312
1944266N17319 1944 60 NA NA NOT_NAMED 1944-09-23 03:00:00 TS 20.4827 -53.4222 main 1300 1245 P_____________ AL091944 20.4827 -53.4222 TS 45 0 20 319
1944266N17319 1944 60 NA NA NOT_NAMED 1944-09-23 06:00:00 TS 21.3000 -54.1000 45 hurdat_atl main 1245 1215 O_____________ hurdat_atl AL091944 21.3000 -54.1000 TS 45 0 20 325
1944266N17319 1944 60 NA NA NOT_NAMED 1944-09-23 09:00:00 TS 22.1572 -54.6601 main 1213 1202 P_____________ AL091944 22.1572 -54.6601 TS 47 0 19 331
1944266N17319 1944 60 NA NA NOT_NAMED 1944-09-23 12:00:00 TS 23.0000 -55.1000 50 hurdat_atl main 1206 1201 O_____________ hurdat_atl AL091944 23.0000 -55.1000 TS 50 0 17 335
1944266N17319 1944 60 NA NA NOT_NAMED 1944-09-23 15:00:00 TS 23.7223 -55.4605 main 1203 1203 P_____________ AL091944 23.7223 -55.4605 TS 52 0 15 339
1944266N17319 1944 60 NA NA NOT_NAMED 1944-09-23 18:00:00 TS 24.4000 -55.7000 55 hurdat_atl main 1224 1224 O_____________ hurdat_atl AL091944 24.4000 -55.7000 TS 55 0 14 346
1944266N17319 1944 60 NA NA NOT_NAMED 1944-09-23 21:00:00 TS 25.0849 -55.8453 main 1258 1249 P_____________ AL091944 25.0849 -55.8453 TS 55 0 14 353
1944266N17319 1944 60 NA NA NOT_NAMED 1944-09-24 00:00:00 TS 25.8000 -55.9000 55 hurdat_atl main 1296 1296 O_____________ hurdat_atl AL091944 25.8000 -55.9000 TS 55 0 15 357
1944266N17319 1944 60 NA NA NOT_NAMED 1944-09-24 03:00:00 TS 26.5700 -55.9226 main 1352 1352 P_____________ AL091944 26.5700 -55.9226 TS 57 0 16 0
1944266N17319 1944 60 NA NA NOT_NAMED 1944-09-24 06:00:00 TS 27.4000 -55.9000 60 hurdat_atl main 1412 1412 O_____________ hurdat_atl AL091944 27.4000 -55.9000 TS 60 0 17 1
1944266N17319 1944 60 NA NA NOT_NAMED 1944-09-24 09:00:00 TS 28.2700 -55.8721 main 1483 1483 P_____________ AL091944 28.2700 -55.8721 TS 62 0 18 3
1944266N17319 1944 60 NA NA NOT_NAMED 1944-09-24 12:00:00 TS 29.2000 -55.8000 65 hurdat_atl main 1563 1563 O_____________ hurdat_atl AL091944 29.2000 -55.8000 HU 65 1 19 5
1944266N17319 1944 60 NA NA NOT_NAMED 1944-09-24 15:00:00 TS 30.1850 -55.6797 main 1654 1626 P_____________ AL091944 30.1850 -55.6797 HU 67 1 20 7
1944266N17319 1944 60 NA NA NOT_NAMED 1944-09-24 18:00:00 TS 31.2000 -55.5000 70 hurdat_atl main 1616 1539 O_____________ hurdat_atl AL091944 31.2000 -55.5000 HU 70 1 20 9
1944266N17319 1944 60 NA NA NOT_NAMED 1944-09-24 21:00:00 TS 32.1998 -55.2939 main 1530 1444 P_____________ AL091944 32.1998 -55.2939 HU 72 1 21 12
1944266N17319 1944 60 NA NA NOT_NAMED 1944-09-25 00:00:00 TS 33.2000 -55.0000 75 hurdat_atl main 1433 1342 O_____________ hurdat_atl AL091944 33.2000 -55.0000 HU 75 1 21 17
1944266N17319 1944 60 NA NA NOT_NAMED 1944-09-25 03:00:00 TS 34.2153 -54.5585 main 1342 1269 P_____________ AL091944 34.2153 -54.5585 HU 77 1 21 20
1944266N17319 1944 60 NA NA NOT_NAMED 1944-09-25 06:00:00 TS 35.2000 -54.1000 80 hurdat_atl main 1259 1168 O_____________ hurdat_atl AL091944 35.2000 -54.1000 HU 80 1 21 19
1944266N17319 1944 60 NA NA NOT_NAMED 1944-09-25 09:00:00 TS 36.1598 -53.7472 main 1156 1067 P_____________ AL091944 36.1598 -53.7472 HU 82 1 19 15
1944266N17319 1944 60 NA NA NOT_NAMED 1944-09-25 12:00:00 TS 37.0000 -53.5000 85 hurdat_atl main 1067 1001 O_____________ hurdat_atl AL091944 37.0000 -53.5000 HU 85 2 15 12
1944266N17319 1944 60 NA NA NOT_NAMED 1944-09-25 15:00:00 TS 37.6598 -53.3541 main 989 934 P_____________ AL091944 37.6598 -53.3541 HU 82 1 12 8
1944266N17319 1944 60 NA NA NOT_NAMED 1944-09-25 18:00:00 TS 38.2000 -53.3000 80 hurdat_atl main 934 878 O_____________ hurdat_atl AL091944 38.2000 -53.3000 HU 80 1 11 3
1944266N17319 1944 60 NA NA NOT_NAMED 1944-09-25 21:00:00 TS 38.7150 -53.2920 main 878 822 P_____________ AL091944 38.7150 -53.2920 HU 77 1 10 1
1944266N17319 1944 60 NA NA NOT_NAMED 1944-09-26 00:00:00 TS 39.2000 -53.3000 75 hurdat_atl main 822 778 O_____________ hurdat_atl AL091944 39.2000 -53.3000 HU 75 1 10 1
1944266N17319 1944 60 NA NA NOT_NAMED 1944-09-26 03:00:00 TS 39.6775 -53.2648 main 767 711 P_____________ AL091944 39.6775 -53.2648 HU 72 1 10 5
1944266N17319 1944 60 NA NA NOT_NAMED 1944-09-26 06:00:00 TS 40.2000 -53.2000 70 hurdat_atl main 711 655 O_____________ hurdat_atl AL091944 40.2000 -53.2000 HU 70 1 11 4
1944266N17319 1944 60 NA NA NOT_NAMED 1944-09-26 09:00:00 TS 40.7747 -53.1648 main 644 567 P_____________ AL091944 40.7747 -53.1648 HU 65 1 13 7
1944266N17319 1944 60 NA NA NOT_NAMED 1944-09-26 12:00:00 ET 41.5000 -53.0000 60 hurdat_atl main 567 479 O_____________ hurdat_atl AL091944 41.5000 -53.0000 EX 60 -4 16 14
1944266N17319 1944 60 NA NA NOT_NAMED 1944-09-26 15:00:00 ET 42.3718 -52.6295 main 469 365 P_____________ AL091944 42.3718 -52.6295 EX 57 -4 21 20
1944266N17319 1944 60 NA NA NOT_NAMED 1944-09-26 18:00:00 ET 43.5000 -52.0000 55 hurdat_atl main 357 252 O_____________ hurdat_atl AL091944 43.5000 -52.0000 EX 55 -4 27 23
1944266N17319 1944 60 NA NA NOT_NAMED 1944-09-26 21:00:00 ET 44.8871 -51.1299 main 248 220 P_____________ AL091944 44.8871 -51.1299 EX 55 -4 33 25
1944266N17319 1944 60 NA NA NOT_NAMED 1944-09-27 00:00:00 ET 46.5000 -50.0000 55 hurdat_atl main 225 222 O_____________ hurdat_atl AL091944 46.5000 -50.0000 EX 55 -4 38 26
1944266N17319 1944 60 NA NA NOT_NAMED 1944-09-27 03:00:00 ET 48.2492 -48.6957 main 299 299 P_____________ AL091944 48.2492 -48.6957 EX 52 -4 40 28
1944266N17319 1944 60 NA NA NOT_NAMED 1944-09-27 06:00:00 ET 50.0000 -47.2000 50 hurdat_atl main 450 450 O_____________ hurdat_atl AL091944 50.0000 -47.2000 EX 50 -4 39 31
1944266N17319 1944 60 NA NA NOT_NAMED 1944-09-27 09:00:00 ET 51.5721 -45.6220 main 611 611 P_____________ AL091944 51.5721 -45.6220 EX 50 -4 36 34
1944266N17319 1944 60 NA NA NOT_NAMED 1944-09-27 12:00:00 ET 53.0000 -43.9000 50 hurdat_atl main 776 655 O_____________ hurdat_atl AL091944 53.0000 -43.9000 EX 50 -4 34 38
1944266N17319 1944 60 NA NA NOT_NAMED 1944-09-27 15:00:00 ET 54.2961 -42.0801 main 645 545 P_____________ AL091944 54.2961 -42.0801 EX 47 -4 34 42
1944266N17319 1944 60 NA NA NOT_NAMED 1944-09-27 18:00:00 ET 55.5000 -40.0000 45 hurdat_atl main 540 494 O_____________ hurdat_atl AL091944 55.5000 -40.0000 EX 45 -4 35 47
1944266N17319 1944 60 NA NA NOT_NAMED 1944-09-27 21:00:00 ET 56.6989 -37.5151 main 496 491 P_____________ AL091944 56.6989 -37.5151 EX 45 -4 37 52
1944266N17319 1944 60 NA NA NOT_NAMED 1944-09-28 00:00:00 ET 57.8000 -34.7000 45 hurdat_atl main 541 541 O_____________ hurdat_atl AL091944 57.8000 -34.7000 EX 45 -4 37 57
1944266N17319 1944 60 NA NA NOT_NAMED 1944-09-28 03:00:00 ET 58.7353 -31.6408 main 661 560 P_____________ AL091944 58.7353 -31.6408 EX 42 -4 37 61
1944266N17319 1944 60 NA NA NOT_NAMED 1944-09-28 06:00:00 ET 59.6000 -28.5000 40 hurdat_atl main 554 404 O_____________ hurdat_atl AL091944 59.6000 -28.5000 EX 40 -4 36 61
1944266N17319 1944 60 NA NA NOT_NAMED 1944-09-28 09:00:00 ET 60.4978 -25.4548 main 392 262 P_____________ AL091944 60.4978 -25.4548 EX 40 -4 35 59
1944266N17319 1944 60 NA NA NOT_NAMED 1944-09-28 12:00:00 ET 61.4000 -22.4000 40 hurdat_atl main 257 O_____________ hurdat_atl AL091944 61.4000 -22.4000 EX 40 -4 34 58

IBTrACS Databaseについて

本データベースは、米国NOAAが公開する1842年以降の世界の熱帯低気圧のベストトラックデータアーカイブInternational Best Track Archive for Climate Stewardship (IBTrACS)を、ウェブで閲覧しやすい形式に変換したものです。

最終更新日:2021-10-21